Time;durP1;ratioP1;P1;durP2;ratioP2;P2;SDS_P1;SDS_P2;PMS_P1;PMS_P2;Temp;Humidity;BMP_temperature;BMP_pressure;BME280_temperature;BME280_humidity;BME280_pressure;Samples;Min_cycle;Max_cycle;Signal;HPM_P1;HPM_P2
2022/02/19 00:00:46;;;;;;;12.00;2.63;;;;;;;8.78;52.27;99279.56;1085921;54;20039;-79
2022/02/19 00:01:48;;;;;;;12.63;2.85;;;;;;;8.74;52.78;99281.66;1087890;39;20473;-78
2022/02/19 00:02:53;;;;;;;10.75;2.22;;;;;;;8.81;52.23;99291.75;1086060;54;20042;-80
2022/02/19 00:03:57;;;;;;;10.55;2.50;;;;;;;8.66;52.32;99289.59;1086507;46;20595;-79
2022/02/19 00:04:59;;;;;;;12.63;2.83;;;;;;;8.72;52.19;99289.00;1086085;54;21099;-80
2022/02/19 00:06:03;;;;;;;10.10;2.80;;;;;;;8.69;52.08;99285.81;1086033;54;20034;-78
2022/02/19 00:07:05;;;;;;;10.02;2.72;;;;;;;8.69;52.09;99291.13;1085868;54;20045;-80
2022/02/19 00:08:11;;;;;;;7.28;1.95;;;;;;;8.73;51.86;99293.34;1086489;54;20042;-78
2022/02/19 00:09:15;;;;;;;9.07;2.15;;;;;;;8.86;51.21;99292.97;1087276;54;20057;-77
2022/02/19 00:10:17;;;;;;;10.10;2.22;;;;;;;8.88;51.15;99293.63;1090393;46;20030;-78
2022/02/19 00:11:21;;;;;;;12.82;2.35;;;;;;;8.79;51.23;99299.03;1088035;54;20045;-78
2022/02/19 00:12:29;;;;;;;8.32;1.95;;;;;;;8.81;51.03;99300.56;1088951;46;20026;-78
2022/02/19 00:13:33;;;;;;;12.18;2.42;;;;;;;8.72;50.23;99302.31;1088115;54;20034;-79
2022/02/19 00:14:35;;;;;;;14.82;2.17;;;;;;;8.81;49.63;99310.41;1087830;54;20046;-77
2022/02/19 00:15:39;;;;;;;7.93;2.15;;;;;;;8.87;49.90;99309.78;1088601;46;20037;-79
2022/02/19 00:16:43;;;;;;;10.30;2.15;;;;;;;8.90;49.86;99310.31;1088123;54;20014;-79
2022/02/19 00:17:47;;;;;;;13.63;2.13;;;;;;;8.88;50.11;99312.28;1089572;46;20030;-78
2022/02/19 00:18:49;;;;;;;7.05;1.85;;;;;;;8.82;50.14;99315.56;1089071;46;20050;-79
2022/02/19 00:19:54;;;;;;;12.30;2.53;;;;;;;8.71;50.03;99307.78;1090296;46;20045;-78
2022/02/19 00:20:56;;;;;;;6.68;2.13;;;;;;;8.88;49.98;99322.13;1087916;54;20065;-78
2022/02/19 00:22:01;;;;;;;10.30;2.65;;;;;;;8.93;49.69;99322.50;1087896;54;20026;-77
2022/02/19 00:23:03;;;;;;;10.98;2.28;;;;;;;8.80;49.58;99320.19;1087571;54;20039;-77
2022/02/19 00:24:07;;;;;;;9.98;2.13;;;;;;;8.72;49.69;99323.66;1087075;54;20034;-78
2022/02/19 00:25:09;;;;;;;10.02;2.30;;;;;;;8.69;49.50;99315.94;1086384;54;20037;-78
2022/02/19 00:26:13;;;;;;;10.43;2.17;;;;;;;8.82;49.26;99322.75;1086217;54;20099;-78
2022/02/19 00:27:18;;;;;;;9.38;2.00;;;;;;;8.74;49.10;99328.81;1086239;54;20046;-79
2022/02/19 00:28:22;;;;;;;10.93;2.20;;;;;;;8.71;49.03;99331.78;1086294;54;20061;-78
2022/02/19 00:29:26;;;;;;;11.98;2.38;;;;;;;8.64;48.79;99333.34;1085943;54;20761;-78
2022/02/19 00:30:28;;;;;;;8.25;2.33;;;;;;;8.58;48.60;99326.81;1086865;39;20476;-78
2022/02/19 00:31:32;;;;;;;9.30;2.08;;;;;;;8.60;48.69;99326.66;1085955;54;20042;-79
2022/02/19 00:32:37;;;;;;;12.55;2.70;;;;;;;8.48;48.58;99332.19;1086145;54;20062;-79
2022/02/19 00:33:39;;;;;;;10.55;2.13;;;;;;;8.68;48.50;99326.75;1086215;54;20064;-80
2022/02/19 00:34:43;;;;;;;7.82;1.95;;;;;;;8.63;48.76;99329.88;1086160;54;20069;-79
2022/02/19 00:35:47;;;;;;;8.50;2.08;;;;;;;8.82;48.43;99338.72;1086186;54;20050;-78
2022/02/19 00:36:51;;;;;;;9.38;2.60;;;;;;;8.56;48.51;99324.28;1086405;54;20038;-78
2022/02/19 00:37:53;;;;;;;11.73;2.53;;;;;;;8.47;48.32;99327.84;1086042;54;20042;-78
2022/02/19 00:38:57;;;;;;;9.80;2.13;;;;;;;8.62;48.44;99338.00;1086065;54;20038;-79
2022/02/19 00:39:59;;;;;;;7.72;2.28;;;;;;;8.68;48.20;99343.56;1086249;54;20644;-78
2022/02/19 00:41:04;;;;;;;8.93;1.90;;;;;;;8.62;48.46;99338.84;1086264;54;20114;-78
2022/02/19 00:42:05;;;;;;;9.35;2.72;;;;;;;8.58;48.52;99348.97;1086420;54;20090;-79
2022/02/19 00:43:10;;;;;;;8.65;2.05;;;;;;;8.46;48.40;99343.94;1086388;54;20595;-78
2022/02/19 00:44:14;;;;;;;13.00;3.17;;;;;;;8.55;48.44;99335.94;1086479;54;20073;-79
2022/02/19 00:45:18;;;;;;;10.50;2.33;;;;;;;8.51;47.90;99350.53;1086861;39;20545;-79
2022/02/19 00:46:20;;;;;;;10.70;2.47;;;;;;;8.64;48.17;99354.69;1086470;54;20039;-79
2022/02/19 00:47:24;;;;;;;8.32;2.40;;;;;;;8.60;48.31;99353.31;1086211;54;20031;-79
2022/02/19 00:48:26;;;;;;;14.32;2.60;;;;;;;8.49;48.46;99357.00;1085977;54;20042;-78
2022/02/19 00:49:30;;;;;;;10.77;2.30;;;;;;;8.44;48.68;99362.75;1086363;54;20098;-78
2022/02/19 00:50:32;;;;;;;12.85;3.17;;;;;;;8.42;48.69;99356.72;1086183;54;20042;-78
2022/02/19 00:51:36;;;;;;;8.60;2.25;;;;;;;8.43;48.72;99369.06;1086415;54;20105;-79
2022/02/19 00:52:38;;;;;;;10.30;2.80;;;;;;;8.52;48.50;99362.88;1086587;54;20057;-80
2022/02/19 00:53:42;;;;;;;8.57;2.30;;;;;;;8.55;48.35;99359.91;1086839;39;20485;-79
2022/02/19 00:54:46;;;;;;;11.18;3.17;;;;;;;8.41;48.69;99363.03;1086395;54;20042;-79
2022/02/19 00:55:47;;;;;;;6.90;2.13;;;;;;;8.51;48.40;99358.53;1086163;54;20065;-79
2022/02/19 00:56:52;;;;;;;9.75;2.03;;;;;;;8.37;48.72;99359.00;1086086;54;20049;-79
2022/02/19 00:57:54;;;;;;;12.55;2.53;;;;;;;8.37;48.94;99362.47;1086313;54;20039;-79
2022/02/19 00:58:58;;;;;;;11.00;2.30;;;;;;;8.42;48.95;99364.72;1086102;54;20038;-78
2022/02/19 01:00:03;;;;;;;12.70;3.05;;;;;;;8.28;48.88;99352.72;1086117;54;20046;-79
2022/02/19 01:01:07;;;;;;;12.80;2.58;;;;;;;8.31;48.92;99363.09;1086798;39;20959;-79
2022/02/19 01:02:09;;;;;;;10.23;2.25;;;;;;;8.34;48.82;99368.13;1086240;54;20639;-79
2022/02/19 01:03:13;;;;;;;10.50;2.17;;;;;;;8.35;48.86;99382.25;1086253;54;20061;-78
2022/02/19 01:04:15;;;;;;;11.38;2.40;;;;;;;8.28;49.06;99374.88;1087000;39;20736;-79
2022/02/19 01:05:19;;;;;;;12.73;2.22;;;;;;;8.33;48.95;99374.44;1085606;54;20035;-79
2022/02/19 01:06:21;;;;;;;14.65;2.70;;;;;;;8.36;49.16;99371.47;1086200;54;20624;-78
2022/02/19 01:07:25;;;;;;;11.73;2.65;;;;;;;8.37;48.92;99372.31;1086270;54;20605;-79
2022/02/19 01:08:27;;;;;;;10.57;2.35;;;;;;;8.43;48.83;99371.72;1086256;54;20643;-79
2022/02/19 01:09:31;;;;;;;12.98;2.60;;;;;;;8.44;48.80;99378.72;1086162;54;20045;-78
2022/02/19 01:10:34;;;;;;;10.38;2.55;;;;;;;8.44;48.85;99373.41;1086125;54;20069;-78
2022/02/19 01:11:39;;;;;;;9.30;2.40;;;;;;;8.34;49.31;99367.28;1086565;47;20034;-79
2022/02/19 01:12:43;;;;;;;8.52;2.50;;;;;;;8.39;49.08;99387.16;1086169;54;20106;-78
2022/02/19 01:13:46;;;;;;;9.57;2.20;;;;;;;8.48;49.11;99392.63;1086218;54;20038;-79
2022/02/19 01:14:50;;;;;;;7.78;2.05;;;;;;;8.43;49.01;99390.34;1086596;47;20010;-78
2022/02/19 01:15:55;;;;;;;9.02;2.10;;;;;;;8.54;49.05;99373.41;1086287;54;20038;-78
2022/02/19 01:16:59;;;;;;;10.93;2.13;;;;;;;8.35;49.18;99374.28;1087304;54;20041;-78
2022/02/19 01:18:00;;;;;;;11.25;3.53;;;;;;;8.30;49.40;99380.03;1087560;54;20073;-79
2022/02/19 01:19:06;;;;;;;11.27;2.33;;;;;;;8.31;49.24;99383.56;1087751;54;20038;-79
2022/02/19 01:20:09;;;;;;;8.77;2.03;;;;;;;8.31;49.50;99378.25;1087848;54;20010;-77
2022/02/19 01:21:13;;;;;;;10.23;2.33;;;;;;;8.44;48.97;99381.38;1087581;54;20046;-78
2022/02/19 01:22:17;;;;;;;7.95;2.25;;;;;;;8.42;49.22;99381.53;1092764;39;20356;-79
2022/02/19 01:23:19;;;;;;;11.88;2.65;;;;;;;8.35;49.20;99382.25;1087761;54;20186;-79
2022/02/19 01:24:23;;;;;;;13.98;2.35;;;;;;;8.34;49.56;99381.44;1087303;54;20039;-80
2022/02/19 01:25:25;;;;;;;12.20;3.05;;;;;;;8.40;49.40;99390.66;1085954;54;20140;-78
2022/02/19 01:26:31;;;;;;;9.82;2.40;;;;;;;8.39;49.99;99391.66;1085562;54;20057;-79
2022/02/19 01:27:32;;;;;;;9.73;1.75;;;;;;;8.43;49.79;99393.88;1086109;39;20472;-79
2022/02/19 01:28:37;;;;;;;9.23;2.05;;;;;;;8.27;50.05;99383.84;1085566;54;20038;-79
2022/02/19 01:29:41;;;;;;;8.80;2.28;;;;;;;8.25;50.10;99396.47;1085466;54;20042;-79
2022/02/19 01:30:42;;;;;;;10.40;2.50;;;;;;;8.25;49.92;99404.44;1085603;54;20573;-79
2022/02/19 01:31:50;;;;;;;9.20;2.03;;;;;;;8.39;49.72;99399.66;1085646;54;21005;-79
2022/02/19 01:32:52;;;;;;;12.50;2.22;;;;;;;8.26;49.86;99406.13;1087912;31;20636;-79
2022/02/19 01:33:56;;;;;;;8.88;2.50;;;;;;;8.28;49.81;99416.63;1085528;54;20038;-79
2022/02/19 01:34:58;;;;;;;9.98;2.67;;;;;;;8.25;49.61;99404.44;1085702;54;20601;-78
2022/02/19 01:36:02;;;;;;;11.82;2.00;;;;;;;8.19;49.79;99401.53;1085827;54;20065;-78
2022/02/19 01:37:04;;;;;;;11.90;3.00;;;;;;;8.16;49.67;99409.81;1086393;54;20045;-79
2022/02/19 01:38:08;;;;;;;10.75;2.58;;;;;;;8.20;49.95;99412.03;1087878;46;20223;-77
2022/02/19 01:39:13;;;;;;;9.18;2.47;;;;;;;8.18;49.64;99419.34;1087518;54;20035;-77
2022/02/19 01:40:14;;;;;;;10.55;2.53;;;;;;;8.22;49.85;99412.72;1088089;54;20053;-78
2022/02/19 01:41:19;;;;;;;10.30;2.33;;;;;;;8.24;49.65;99421.41;1088758;46;20061;-78
2022/02/19 01:42:20;;;;;;;7.30;2.05;;;;;;;8.35;49.39;99415.09;1088433;46;20034;-78
2022/02/19 01:43:25;;;;;;;10.35;2.42;;;;;;;8.25;49.39;99415.09;1088811;46;20053;-77
2022/02/19 01:44:34;;;;;;;11.68;2.40;;;;;;;8.24;49.14;99426.72;1087898;46;20037;-78
2022/02/19 01:45:38;;;;;;;9.82;2.25;;;;;;;8.37;49.22;99428.25;1088111;54;20090;-78
2022/02/19 01:46:40;;;;;;;12.02;2.40;;;;;;;8.18;49.25;99415.81;1092890;39;20527;-79
2022/02/19 01:47:47;;;;;;;7.50;1.95;;;;;;;8.14;49.03;99428.59;1088019;54;20018;-78
2022/02/19 01:48:49;;;;;;;11.45;2.38;;;;;;;8.17;49.03;99435.47;1086898;54;20644;-78
2022/02/19 01:49:56;;;;;;;7.65;2.17;;;;;;;8.05;48.89;99432.97;1086327;54;20026;-77
2022/02/19 01:50:58;;;;;;;9.05;2.63;;;;;;;8.00;49.22;99426.38;1086106;54;20038;-78
2022/02/19 01:52:06;;;;;;;11.68;2.95;;;;;;;7.98;49.17;99426.53;1088352;39;20882;-78
2022/02/19 01:53:08;;;;;;;11.25;2.47;;;;;;;8.01;48.99;99433.41;1085759;54;20054;-78
2022/02/19 01:54:13;;;;;;;10.55;2.78;;;;;;;8.03;48.49;99428.78;1086099;54;20042;-77
2022/02/19 01:55:14;;;;;;;9.80;2.08;;;;;;;8.06;48.44;99445.28;1085741;54;20049;-78
2022/02/19 01:56:19;;;;;;;9.52;2.17;;;;;;;8.10;48.42;99453.84;1085868;54;20042;-78
2022/02/19 01:57:21;;;;;;;7.18;2.13;;;;;;;8.05;48.58;99458.72;1085603;54;20943;-79
2022/02/19 01:58:26;;;;;;;7.88;2.10;;;;;;;7.96;48.49;99455.94;1085813;54;20027;-79
2022/02/19 01:59:28;;;;;;;9.18;2.20;;;;;;;8.07;48.11;99462.09;1085580;54;20057;-78
2022/02/19 02:00:32;;;;;;;10.13;2.25;;;;;;;7.99;48.25;99451.31;1085255;54;20043;-79
2022/02/19 02:01:34;;;;;;;9.27;2.15;;;;;;;8.04;48.04;99457.91;1087812;39;20766;-80
2022/02/19 02:02:39;;;;;;;14.68;4.00;;;;;;;8.06;48.01;99460.41;1086861;54;20049;-78
2022/02/19 02:03:43;;;;;;;8.65;2.05;;;;;;;7.92;47.88;99465.22;1086890;54;20038;-81
2022/02/19 02:04:47;;;;;;;8.77;2.08;;;;;;;8.00;47.98;99461.00;1086766;54;20061;-78
2022/02/19 02:05:49;;;;;;;7.75;2.05;;;;;;;7.92;47.89;99449.25;1087010;54;20066;-78
2022/02/19 02:06:53;;;;;;;10.93;2.58;;;;;;;7.93;47.93;99450.06;1087395;39;20742;-80
2022/02/19 02:07:55;;;;;;;8.38;2.22;;;;;;;7.85;48.20;99453.44;1087554;54;20034;-78
2022/02/19 02:09:00;;;;;;;9.75;2.00;;;;;;;7.95;47.89;99464.06;1087064;54;20057;-80
2022/02/19 02:10:03;;;;;;;11.20;2.42;;;;;;;8.06;47.88;99465.72;1086677;54;20127;-79
2022/02/19 02:12:53;;;;;;;10.02;2.08;;;;;;;7.95;47.80;99464.91;1086682;54;20026;-79
2022/02/19 02:13:55;;;;;;;8.88;2.20;;;;;;;7.86;48.39;99463.09;1086799;54;20035;-79
2022/02/19 02:15:24;;;;;;;9.13;2.45;;;;;;;7.68;48.27;99468.31;1086444;54;20059;-78
2022/02/19 02:16:36;;;;;;;8.85;2.10;;;;;;;7.73;48.37;99476.69;1087461;54;20042;-79
2022/02/19 02:17:40;;;;;;;11.25;2.38;;;;;;;7.77;48.15;99467.47;1086943;54;20073;-78
2022/02/19 02:18:48;;;;;;;12.93;2.60;;;;;;;7.80;48.31;99471.66;1087125;54;20026;-78
2022/02/19 02:19:50;;;;;;;8.93;1.67;;;;;;;7.87;48.22;99472.75;1087929;46;20026;-79
2022/02/19 02:21:00;;;;;;;7.50;1.98;;;;;;;7.81;48.07;99481.31;1087074;54;20062;-79
2022/02/19 02:22:06;;;;;;;10.05;2.42;;;;;;;7.69;48.42;99469.13;1087259;54;20046;-80
2022/02/19 02:23:11;;;;;;;11.35;2.65;;;;;;;7.78;48.41;99473.59;1085282;54;20041;-79
2022/02/19 02:24:13;;;;;;;10.63;1.92;;;;;;;7.83;48.20;99470.53;1086567;39;20456;-78
2022/02/19 02:25:17;;;;;;;9.00;2.05;;;;;;;7.81;48.35;99479.50;1085629;46;20038;-79
2022/02/19 02:26:20;;;;;;;10.05;2.08;;;;;;;7.75;48.31;99473.88;1085297;54;20038;-77
2022/02/19 02:27:25;;;;;;;11.35;2.20;;;;;;;7.61;48.53;99470.69;1085022;54;20050;-80
2022/02/19 02:28:29;;;;;;;17.50;2.83;;;;;;;7.61;48.73;99470.69;1085203;46;20027;-77
2022/02/19 02:29:31;;;;;;;9.98;2.25;;;;;;;7.60;48.62;99471.66;1087200;39;20505;-77
2022/02/19 02:30:35;;;;;;;8.52;2.08;;;;;;;7.74;48.43;99489.03;1084548;54;20113;-78
2022/02/19 02:31:37;;;;;;;7.85;2.03;;;;;;;7.68;48.28;99483.41;1085229;46;20038;-77
2022/02/19 02:32:42;;;;;;;10.68;2.22;;;;;;;7.60;48.67;99481.47;1085531;46;20050;-78
2022/02/19 02:33:46;;;;;;;7.28;1.65;;;;;;;7.71;48.50;99475.16;1085540;54;20038;-78
2022/02/19 02:34:54;;;;;;;11.30;2.35;;;;;;;7.59;48.18;99485.09;1086493;54;20038;-78
2022/02/19 02:35:58;;;;;;;12.70;2.78;;;;;;;7.41;48.60;99479.63;1086260;54;20049;-79
2022/02/19 02:37:16;;;;;;;10.45;2.28;;;;;;;7.47;48.32;99479.06;1086638;54;20602;-81
2022/02/19 02:38:21;;;;;;;12.77;2.72;;;;;;;7.54;48.42;99490.84;1086835;46;20668;-79
2022/02/19 02:39:22;;;;;;;8.43;1.65;;;;;;;7.67;47.97;99489.72;1087040;54;20041;-80
2022/02/19 02:40:26;;;;;;;10.02;1.95;;;;;;;7.59;48.37;99485.09;1087478;46;20041;-80
2022/02/19 02:41:39;;;;;;;12.07;2.10;;;;;;;7.53;48.09;99489.16;1087100;54;20038;-78
2022/02/19 02:42:43;;;;;;;9.23;3.55;;;;;;;7.61;48.13;99488.44;1087085;47;20035;-81
2022/02/19 02:43:47;;;;;;;11.63;2.20;;;;;;;7.52;48.22;99486.63;1087505;39;20406;-80
2022/02/19 02:44:52;;;;;;;12.65;2.38;;;;;;;7.47;48.17;99493.22;1086395;54;20093;-79
2022/02/19 02:45:56;;;;;;;9.93;2.60;;;;;;;7.40;48.08;99492.09;1086585;54;20034;-79
2022/02/19 02:46:57;;;;;;;8.98;2.28;;;;;;;7.48;48.02;99510.00;1086782;54;20038;-79
2022/02/19 02:48:03;;;;;;;8.35;2.67;;;;;;;7.50;47.88;99497.41;1086706;54;20042;-80
2022/02/19 02:49:12;;;;;;;15.32;2.67;;;;;;;7.43;48.21;99510.41;1087630;39;20586;-79
2022/02/19 02:50:14;;;;;;;10.30;2.30;;;;;;;7.48;48.05;99502.88;1086240;54;20034;-79
2022/02/19 02:51:18;;;;;;;9.85;2.08;;;;;;;7.61;47.89;99510.59;1086630;54;20053;-80
2022/02/19 02:52:22;;;;;;;9.75;2.25;;;;;;;7.58;48.12;99502.03;1086459;54;20043;-80
2022/02/19 02:53:38;;;;;;;8.27;1.70;;;;;;;7.62;48.17;99517.59;1086358;54;20026;-79
2022/02/19 02:54:40;;;;;;;11.23;2.30;;;;;;;7.49;48.36;99514.34;1086992;54;20584;-80
2022/02/19 02:55:50;;;;;;;11.80;3.03;;;;;;;7.50;48.33;99502.72;1086763;54;20034;-78
2022/02/19 02:56:52;;;;;;;7.40;2.75;;;;;;;7.57;48.04;99516.31;1086396;54;20034;-79
2022/02/19 02:58:07;;;;;;;10.43;2.70;;;;;;;7.55;48.32;99513.81;1086653;54;20086;-80
2022/02/19 02:59:09;;;;;;;9.20;2.30;;;;;;;7.44;48.35;99513.94;1087182;54;20039;-80
2022/02/19 03:00:34;;;;;;;9.88;2.10;;;;;;;7.27;48.83;99524.25;1087345;54;20146;-82
2022/02/19 03:01:36;;;;;;;8.88;2.20;;;;;;;7.42;48.62;99527.34;1087063;54;20041;-80
2022/02/19 03:02:46;;;;;;;10.85;2.35;;;;;;;7.40;48.62;99531.13;1086610;54;20058;-79
2022/02/19 03:03:50;;;;;;;11.50;2.28;;;;;;;7.30;48.71;99529.28;1086301;54;20057;-79
2022/02/19 03:04:51;;;;;;;12.98;2.75;;;;;;;7.28;48.90;99531.22;1085970;54;20039;-80
2022/02/19 03:05:57;;;;;;;10.05;2.60;;;;;;;7.28;49.03;99541.88;1086603;46;20034;-79
2022/02/19 03:06:58;;;;;;;13.07;2.33;;;;;;;7.30;49.06;99541.75;1086159;54;20030;-79
2022/02/19 03:08:14;;;;;;;8.20;2.08;;;;;;;7.39;48.78;99545.41;1086163;54;20033;-80
2022/02/19 03:09:15;;;;;;;12.45;3.33;;;;;;;7.39;48.62;99542.72;1086811;39;20464;-78
2022/02/19 03:10:20;;;;;;;6.97;2.35;;;;;;;7.34;48.82;99541.34;1086358;54;20033;-80
2022/02/19 03:11:25;;;;;;;10.80;2.85;;;;;;;7.32;49.19;99551.25;1085942;54;20091;-80
2022/02/19 03:12:26;;;;;;;12.20;2.22;;;;;;;7.33;49.06;99549.44;1086570;54;20038;-79
2022/02/19 03:13:31;;;;;;;7.15;2.20;;;;;;;7.31;49.01;99552.25;1086821;39;20560;-80
2022/02/19 03:14:35;;;;;;;12.63;2.92;;;;;;;7.37;48.95;99558.84;1086572;54;20094;-78
2022/02/19 03:15:37;;;;;;;11.65;2.47;;;;;;;7.16;49.61;99569.56;1086126;54;20568;-78
2022/02/19 03:16:46;;;;;;;11.05;2.28;;;;;;;7.30;49.41;99555.03;1086850;46;20027;-80
2022/02/19 03:17:49;;;;;;;12.07;2.22;;;;;;;7.32;49.35;99558.41;1086125;47;20035;-78
2022/02/19 03:18:53;;;;;;;11.18;2.03;;;;;;;7.38;48.88;99562.31;1086441;54;20031;-81
2022/02/19 03:19:54;;;;;;;10.63;2.63;;;;;;;7.20;49.28;99575.44;1086151;54;20065;-79
2022/02/19 03:20:59;;;;;;;11.05;2.97;;;;;;;7.39;49.31;99575.50;1086465;54;20045;-80
2022/02/19 03:22:00;;;;;;;10.57;2.17;;;;;;;7.49;48.92;99570.19;1086765;54;20038;-77
2022/02/19 03:23:15;;;;;;;11.95;2.53;;;;;;;7.20;49.80;99583.41;1086869;54;20034;-80
2022/02/19 03:24:18;;;;;;;10.20;2.30;;;;;;;7.16;49.87;99593.47;1086812;54;20039;-79
2022/02/19 03:25:24;;;;;;;16.00;2.67;;;;;;;7.32;49.27;99579.69;1086760;54;20696;-79
2022/02/19 03:26:31;;;;;;;9.48;1.88;;;;;;;7.34;49.13;99591.88;1086438;54;20035;-81
2022/02/19 03:27:33;;;;;;;12.63;2.75;;;;;;;7.13;49.32;99591.06;1087245;39;20413;-79
2022/02/19 03:28:38;;;;;;;11.35;2.40;;;;;;;7.06;49.46;99601.41;1087157;46;20042;-82
2022/02/19 03:29:40;;;;;;;7.97;2.17;;;;;;;7.22;49.27;99606.22;1087208;54;20102;-79
2022/02/19 03:30:44;;;;;;;8.98;2.05;;;;;;;7.28;49.03;99608.34;1087156;54;20037;-80
2022/02/19 03:31:46;;;;;;;8.20;2.30;;;;;;;7.33;49.17;99602.63;1087236;54;20050;-81
2022/02/19 03:32:50;;;;;;;12.02;3.13;;;;;;;7.16;49.61;99610.25;1089080;39;20465;-78
2022/02/19 03:34:04;;;;;;;11.43;2.75;;;;;;;7.21;49.40;99607.19;1086189;54;20042;-79
2022/02/19 03:35:09;;;;;;;8.40;1.70;;;;;;;7.29;49.19;99610.03;1086319;54;20061;-82
2022/02/19 03:36:11;;;;;;;9.10;2.25;;;;;;;7.09;49.41;99611.78;1086840;46;20058;-78
2022/02/19 03:37:21;;;;;;;9.25;2.10;;;;;;;7.00;49.80;99617.88;1087283;54;20030;-80
2022/02/19 03:38:28;;;;;;;11.02;2.70;;;;;;;7.16;49.62;99618.22;1088179;54;20031;-80
2022/02/19 03:55:35;;;;;;;12.02;2.40;;;;;;;6.69;50.97;99637.31;1086923;54;20042;-81
2022/02/19 04:06:29;;;;;;;10.43;2.10;;;;;;;6.65;50.81;99657.13;1085219;54;20033;-79
2022/02/19 04:31:16;;;;;;;7.80;2.55;;;;;;;6.33;51.44;99695.13;1086296;54;20145;-80
2022/02/19 04:32:41;;;;;;;12.40;2.90;;;;;;;6.35;51.54;99697.69;1088012;54;20038;-81
2022/02/19 04:33:43;;;;;;;10.48;2.28;;;;;;;6.44;51.45;99704.03;1088689;54;20022;-81
2022/02/19 04:36:45;;;;;;;10.63;1.92;;;;;;;6.39;51.39;99701.75;1088564;54;19999;-80
2022/02/19 04:37:47;;;;;;;9.32;2.00;;;;;;;6.31;51.25;99717.47;1098357;46;20029;-81
2022/02/19 05:32:14;;;;;;;10.38;2.13;;;;;;;6.14;53.02;99822.41;1086178;54;20045;-81
2022/02/19 05:33:16;;;;;;;13.52;3.35;;;;;;;6.07;53.07;99822.84;1088264;39;20537;-80
2022/02/19 05:34:24;;;;;;;8.45;2.30;;;;;;;6.15;52.67;99816.09;1087138;54;20054;-80
2022/02/19 05:35:28;;;;;;;13.65;3.08;;;;;;;6.03;53.09;99821.44;1087267;54;20572;-81
2022/02/19 05:36:33;;;;;;;10.32;2.30;;;;;;;6.12;52.84;99829.63;1088650;39;20073;-80
2022/02/19 05:37:35;;;;;;;8.88;2.22;;;;;;;6.09;52.85;99820.94;1088381;54;20022;-83
2022/02/19 05:38:39;;;;;;;9.15;1.88;;;;;;;6.17;52.82;99815.03;1087610;54;20035;-79
2022/02/19 05:39:43;;;;;;;7.82;2.13;;;;;;;5.99;53.19;99833.22;1087511;54;20030;-81
2022/02/19 05:40:48;;;;;;;9.18;2.05;;;;;;;6.14;52.90;99831.19;1086526;54;20542;-80
2022/02/19 05:41:52;;;;;;;7.60;2.00;;;;;;;6.23;52.68;99822.50;1086444;54;20039;-79
2022/02/19 05:43:04;;;;;;;8.65;2.10;;;;;;;6.23;52.61;99821.66;1087009;54;20049;-79
2022/02/19 05:44:15;;;;;;;9.30;2.50;;;;;;;6.29;52.48;99825.59;1088527;54;20075;-82
2022/02/19 05:45:23;;;;;;;8.85;2.20;;;;;;;6.08;53.07;99829.84;1088391;54;20078;-81
2022/02/19 05:46:25;;;;;;;8.70;1.92;;;;;;;6.18;53.11;99837.94;1096656;47;20065;-79
2022/02/19 05:51:14;;;;;;;11.77;2.53;;;;;;;6.04;52.97;99844.34;1104622;47;20015;-79
2022/02/19 05:52:17;;;;;;;10.00;2.17;;;;;;;6.04;53.34;99854.97;1090988;47;20034;-81
2022/02/19 05:53:28;;;;;;;11.23;2.75;;;;;;;5.97;53.33;99845.75;1088192;46;20054;-83
2022/02/19 05:54:29;;;;;;;;;;;;;;;5.83;53.79;99851.28;1088561;47;20042;-82
2022/02/19 05:55:46;;;;;;;9.25;2.15;;;;;;;5.89;53.64;99851.66;1087940;54;19927;-81
2022/02/19 05:56:48;;;;;;;8.90;2.05;;;;;;;6.02;53.55;99856.03;1088220;54;20639;-80
2022/02/19 05:57:53;;;;;;;8.90;2.22;;;;;;;5.99;53.79;99843.00;1088990;47;20011;-82
2022/02/19 05:58:55;;;;;;;9.68;1.90;;;;;;;6.13;53.24;99852.56;1086392;54;20583;-81
2022/02/19 06:00:00;;;;;;;7.97;2.05;;;;;;;5.98;53.15;99850.09;1086640;54;20560;-81
2022/02/19 06:01:02;;;;;;;13.05;2.70;;;;;;;5.91;53.51;99848.88;1086765;54;20581;-81
2022/02/19 06:02:10;;;;;;;14.43;3.15;;;;;;;5.86;53.86;99851.91;1086858;54;20039;-82
2022/02/19 06:03:15;;;;;;;12.75;2.28;;;;;;;5.83;53.89;99848.63;1087014;54;20034;-81
2022/02/19 06:04:23;;;;;;;8.25;1.85;;;;;;;5.89;53.54;99845.50;1086734;54;20053;-81
2022/02/19 06:05:25;;;;;;;10.52;2.03;;;;;;;5.85;53.85;99854.69;1086710;54;20038;-81
2022/02/19 06:06:32;;;;;;;8.55;2.78;;;;;;;5.93;53.66;99857.56;1086696;54;20038;-81
2022/02/19 06:07:34;;;;;;;12.05;2.25;;;;;;;5.83;53.92;99859.25;1086510;54;20533;-78
2022/02/19 06:08:39;;;;;;;11.23;2.75;;;;;;;5.78;53.89;99852.47;1085860;54;20034;-80
2022/02/19 06:09:44;;;;;;;9.18;2.03;;;;;;;5.87;53.96;99858.03;1085999;54;20042;-80
2022/02/19 06:10:51;;;;;;;12.93;2.40;;;;;;;5.76;54.03;99867.66;1085926;54;20038;-80
2022/02/19 06:11:57;;;;;;;10.25;2.15;;;;;;;5.85;54.00;99873.25;1086909;39;20525;-79
2022/02/19 06:12:59;;;;;;;11.90;2.10;;;;;;;5.77;54.13;99874.66;1086076;54;20061;-80
2022/02/19 06:16:10;;;;;;;8.95;2.22;;;;;;;5.91;53.81;99875.41;1088218;54;20030;-81
2022/02/19 06:17:12;;;;;;;10.85;2.15;;;;;;;5.78;54.08;99864.91;1093598;47;20139;-80
2022/02/19 06:18:17;;;;;;;11.73;2.30;;;;;;;5.80;54.20;99859.47;1085949;54;20029;-80
2022/02/19 06:19:23;;;;;;;8.95;2.20;;;;;;;5.75;54.27;99859.84;1086529;54;20572;-80
2022/02/19 06:20:27;;;;;;;15.25;3.63;;;;;;;5.85;54.17;99875.91;1088290;39;20460;-80
2022/02/19 06:21:38;;;;;;;7.85;2.00;;;;;;;5.71;53.99;99869.84;1087243;54;20065;-79
2022/02/19 06:22:42;;;;;;;9.85;2.03;;;;;;;5.71;53.98;99869.84;1087991;54;20037;-81
2022/02/19 06:23:44;;;;;;;12.73;2.30;;;;;;;5.71;54.15;99869.00;1087204;54;20086;-79
2022/02/19 06:24:49;;;;;;;9.82;2.45;;;;;;;5.65;54.36;99880.06;1086977;54;20045;-78
2022/02/19 06:25:51;;;;;;;9.52;2.28;;;;;;;5.69;54.06;99877.06;1089512;39;20437;-79
2022/02/19 06:26:55;;;;;;;10.68;1.92;;;;;;;5.69;54.29;99882.38;1087486;54;20118;-81
2022/02/19 06:28:13;;;;;;;10.02;2.20;;;;;;;5.54;54.45;99884.38;1087563;54;20035;-81
2022/02/19 06:29:18;;;;;;;9.90;2.03;;;;;;;5.54;54.72;99888.84;1087432;54;20065;-79
2022/02/19 06:30:25;;;;;;;11.95;2.65;;;;;;;5.53;54.35;99887.16;1087400;54;20607;-80
2022/02/19 06:31:27;;;;;;;11.50;2.60;;;;;;;5.52;54.50;99882.81;1087509;54;20041;-81
2022/02/19 06:32:32;;;;;;;11.20;2.00;;;;;;;5.62;54.54;99895.25;1087438;54;20037;-80
2022/02/19 06:33:34;;;;;;;9.07;2.20;;;;;;;5.55;54.70;99894.03;1088727;39;20402;-81
2022/02/19 06:34:39;;;;;;;12.35;2.45;;;;;;;5.54;54.86;99889.69;1089647;39;20455;-80
2022/02/19 06:35:49;;;;;;;9.27;2.25;;;;;;;5.53;54.93;99903.06;1087530;54;20572;-81
2022/02/19 06:36:53;;;;;;;;;;;;;;;5.51;55.02;99897.03;1088126;54;20034;-81
2022/02/19 06:38:14;;;;;;;11.95;2.63;;;;;;;5.43;55.26;99895.81;1087878;54;19962;-82
2022/02/19 06:39:16;;;;;;;;;;;;;;;5.38;55.57;99895.31;1088627;46;20039;-82
2022/02/19 06:40:23;;;;;;;8.55;2.25;;;;;;;5.48;55.05;99898.09;1089155;39;20368;-81
2022/02/19 06:41:24;;;;;;;13.82;2.20;;;;;;;5.41;55.25;99892.41;1087730;54;20058;-80
2022/02/19 06:42:35;;;;;;;12.75;2.55;;;;;;;5.34;55.62;99901.81;1088092;47;20122;-80
2022/02/19 06:43:37;;;;;;;10.63;2.78;;;;;;;5.42;55.37;99911.84;1089610;46;20030;-83
2022/02/19 06:44:50;;;;;;;14.65;3.42;;;;;;;5.42;55.65;99902.06;1088082;54;20054;-79
2022/02/19 06:45:52;;;;;;;13.00;2.90;;;;;;;5.40;55.37;99913.75;1086606;54;20050;-81
2022/02/19 06:47:10;;;;;;;8.55;2.13;;;;;;;5.51;55.19;99920.88;1086758;54;20133;-79
2022/02/19 06:48:12;;;;;;;12.27;2.20;;;;;;;5.51;55.14;99918.25;1087056;54;20062;-78
2022/02/19 06:49:53;;;;;;;12.40;2.60;;;;;;;5.38;55.23;99920.97;1088101;54;20027;-78
2022/02/19 06:50:58;;;;;;;13.13;2.33;;;;;;;5.44;55.11;99921.38;1088262;54;20057;-78
2022/02/19 06:54:07;;;;;;;13.65;2.92;;;;;;;5.42;54.99;99933.88;1088042;54;20026;-79
2022/02/19 06:55:22;;;;;;;9.75;2.42;;;;;;;5.42;54.91;99922.44;1088046;54;20046;-79
2022/02/19 06:56:38;;;;;;;8.70;2.10;;;;;;;5.38;55.16;99927.13;1087950;54;20038;-80
2022/02/19 06:57:55;;;;;;;9.85;4.00;;;;;;;5.30;55.31;99940.94;1087910;54;20019;-80
2022/02/19 06:59:10;;;;;;;9.57;2.50;;;;;;;5.33;55.23;99933.72;1087549;54;20081;-78
2022/02/19 07:00:26;;;;;;;10.52;2.70;;;;;;;5.35;55.25;99932.66;1087550;54;20026;-78
2022/02/19 07:02:11;;;;;;;8.43;1.75;;;;;;;5.36;54.79;99944.94;1087738;54;20655;-79
2022/02/19 07:03:13;;;;;;;13.23;3.13;;;;;;;5.40;54.85;99940.25;1087733;54;20038;-78